Flight Track Log - Related Links

Times and Time Zones

All times are in EDT time to prevent confusion due to time zone crossing. See the N53NW flight status page for this flight to view local times or setup timezone preferences in your user account.


Time Position Orientation Groundspeed Altitude Reporting Facility
EDT Latitude Longitude Course Direction KTS MPH feet Rate Location/Type
Fri 12:22:35 PM 32.6500 -97.0833 203° Southwest 151 174 1,200  Level Dallas / Fort Worth TRACON
Fri 12:23:23 PM 32.6167 -97.1000 203° Southwest 209 241 2,500 2,411 Climbing Dallas / Fort Worth TRACON
Fri 12:24:22 PM 32.5533 -97.1053 184° South 212 244 5,500 3,126 Climbing Fort Worth Center
Fri 12:25:22 PM 32.4989 -97.0956 171° South 219 252 8,700 3,250 Climbing Fort Worth Center
Fri 12:26:22 PM 32.4300 -97.0861 173° South 224 258 12,000 2,600 Climbing Fort Worth Center
Fri 12:27:22 PM 32.3611 -97.0739 171° South 237 273 13,900 2,150 Climbing Fort Worth Center
Fri 12:28:22 PM 32.2839 -97.0619 173° South 279 321 16,300 2,200 Climbing Fort Worth Center
Fri 12:29:22 PM 32.2025 -97.0647 182° South 286 329 18,300 1,850 Climbing Fort Worth Center
Fri 12:30:22 PM 32.1211 -97.0675 182° South 291 335 20,000 850 Climbing Fort Worth Center
Fri 12:31:22 PM 32.0311 -97.0678 180° South 302 348 20,000  Level Fort Worth Center
Fri 12:32:22 PM 31.9497 -97.0681 180° South 322 371 20,000  Level Fort Worth Center
Fri 12:33:22 PM 31.8517 -97.0711 182° South 329 379 20,000  Level Fort Worth Center
Fri 12:34:22 PM 31.7619 -97.0761 183° South 323 372 20,000  Level Fort Worth Center
Fri 12:34:53 PM 31.7233 -97.0761 180° South 321 369 20,000  Level Houston Center
Fri 12:35:55 PM 31.6339 -97.0783 181° South 318 366 20,000  Level Houston Center
Fri 12:36:57 PM 31.5461 -97.0811 182° South 312 359 20,000  Level Houston Center
Fri 12:37:59 PM 31.4614 -97.1100 196° South 313 360 20,000  Level Houston Center
Fri 12:39:01 PM 31.3658 -97.1475 199° South 309 356 20,000  Level Houston Center
Fri 12:40:03 PM 31.2836 -97.1789 198° South 309 356 20,000  Level Houston Center
Fri 12:41:05 PM 31.2008 -97.2119 199° South 310 357 20,000  Level Houston Center
Fri 12:42:08 PM 31.1192 -97.2436 198° South 309 356 20,000  Level Houston Center
Fri 12:43:10 PM 31.0378 -97.2764 199° South 307 353 20,000  Level Houston Center
Fri 12:44:12 PM 30.9414 -97.3133 198° South 320 368 20,000  Level Houston Center
Fri 12:45:14 PM 30.8589 -97.3450 198° South 317 365 20,000  Level Houston Center
Fri 12:46:16 PM 30.7767 -97.3764 198° South 310 357 20,000 -484 Level Houston Center
Fri 12:47:18 PM 30.6942 -97.4083 198° South 310 357 19,000 -1,210 Descending Houston Center
Fri 12:48:20 PM 30.6142 -97.4400 199° South 304 350 17,500 -1,632 Descending Houston Center
Fri 12:49:23 PM 30.5225 -97.4753 198° South 296 341 15,600 -1,680 Descending Houston Center
Fri 12:50:25 PM 30.4439 -97.5047 198° South 293 337 14,000 -1,597 Descending Houston Center
Fri 12:51:27 PM 30.3686 -97.5367 200° South 287 330 12,300 -1,306 Descending Houston Center
Fri 12:52:29 PM 30.3036 -97.5817 211° Southwest 272 313 11,300 -1,016 Descending Houston Center
Fri 12:53:31 PM 30.2367 -97.6297 212° Southwest 279 321 10,200 -629 Descending Houston Center
Fri 12:54:33 PM 30.1697 -97.6756 211° Southwest 277 319 10,000 -96 Descending Houston Center
Fri 12:55:36 PM 30.1050 -97.7192 210° Southwest 268 308 10,000  Level Houston Center
Fri 12:56:37 PM 30.0275 -97.7719 211° Southwest 275 316 10,000  Level Houston Center
Fri 12:57:02 PM 30.0033 -97.7906 214° Southwest 278 320 10,000  Level Houston Center
Fri 12:57:38 PM 29.9617 -97.8175 209° Southwest 280 322 10,000  Level Houston Center
Fri 12:57:40 PM 29.9606 -97.8172 168° South 277 319 10,000  Level Houston Center
Fri 12:58:39 PM 29.8992 -97.8664 215° Southwest 276 318 10,000  Level Houston Center
Fri 12:58:42 PM 29.8942 -97.8719 224° Southwest 272 313 10,000  Level Houston Center
Fri 12:59:44 PM 29.8600 -97.9494 243° Southwest 271 312 10,000  Level Houston Center
Fri 01:00:41 PM 29.8283 -98.0272 245° Southwest 269 310 10,000  Level Houston Center
Fri 01:00:46 PM 29.8250 -98.0325 234° Southwest 269 310 10,000 -545 Level Houston Center
Fri 01:01:36 PM 29.7975 -98.0986 244° Southwest 272 313 9,500 -581 Descending Houston Center
Fri 01:01:48 PM 29.7922 -98.1111 244° Southwest 273 314 9,400 -1,075 Descending Houston Center
Fri 01:02:43 PM 29.7631 -98.1797 244° Southwest 261 300 8,300 -1,161 Descending Houston Center
Fri 01:02:50 PM 29.7583 -98.1903 243° Southwest 260 299 8,200 -1,200 Descending Houston Center
Fri 01:03:43 PM 29.7322 -98.2533 245° Southwest 256 295 7,100 -1,065 Descending Houston Center
Fri 01:03:52 PM 29.7275 -98.2639 243° Southwest 256 295 7,100 -1,082 Level Houston Center
Fri 01:04:44 PM 29.6994 -98.3297 244° Southwest 250 288 6,000 -952 Descending Houston Center
Fri 01:04:55 PM 29.6944 -98.3414 244° Southwest 252 290 6,100 -109 Climbing Houston Center
Fri 01:05:39 PM 29.6733 -98.3906 244° Southwest 252 290 5,900 -97 Descending Houston Center
Fri 01:05:57 PM 29.6647 -98.4106 244° Southwest 242 278 6,000 -492 Climbing Houston Center
Fri 01:06:40 PM 29.6539 -98.4528 254° West 187 215 5,400 -871 Descending Houston Center
Fri 01:06:59 PM 29.6658 -98.4700 309° West 220 253 5,100 -448 Descending Houston Center
Fri 01:07:47 PM 29.6928 -98.5108 307° West 208 239 4,900 -97 Descending Houston Center
Fri 01:08:01 PM 29.7011 -98.5208 314° West 207 238 5,000 90 Climbing Houston Center
Fri 01:08:54 PM 29.7361 -98.5706 309° West 215 247 5,000  Level Houston Center
Fri 01:09:03 PM 29.7406 -98.5781 304° West 213 245 5,000 -98 Level Houston Center
Fri 01:09:55 PM 29.7364 -98.6186 263° West 159 183 4,900 -97 Descending Houston Center
Fri 01:10:05 PM 29.7319 -98.6233 223° Southwest 162 186 4,900 -1,250 Level Houston Center
Fri 01:10:43 PM 29.7086 -98.6386 210° Southwest 135 155 3,900 -1,355 Descending Houston Center
Fri 01:11:07 PM 29.6928 -98.6406 186° South 146 168 3,500 -896 Descending Houston Center
Fri 01:11:50 PM 29.6675 -98.6244 151° Southeast 147 169 2,900 -476 Descending Houston Center
Fri 01:12:10 PM 29.6575 -98.6175 149° Southeast 147 169 3,000  Climbing Houston Center
Fri 01:12:51 PM 29.6319 -98.6022 153° Southeast 147 169 2,900  Descending Houston Center
Fri 01:13:12 PM 29.6211 -98.5856 127° Southeast 157 181 3,000 -295 Climbing Houston Center
Fri 01:13:52 PM 29.6033 -98.5647 134° Southeast 143 165 2,600 -484 Descending Houston Center
Fri 01:14:14 PM 29.5953 -98.5531 128° Southeast 143 165 2,500 -655 Descending Houston Center
Fri 01:14:47 PM 29.5819 -98.5383 136° Southeast 131 151 2,000 -677 Descending Houston Center
Fri 01:15:16 PM 29.5711 -98.5217 127° Southeast 126 145 1,800 -689 Descending Houston Center
Fri 01:15:48 PM 29.5603 -98.5075 131° Southeast 114 131 1,300 -581 Descending Houston Center
Fri 01:16:18 PM 29.5508 -98.4944 130° Southeast 115 132 1,200 -200 Descending Houston Center

Login

Don't have an account? Register now (free) for customized features, flight alerts, and more!